[x] [x]
.:Aeroklub Partizánske:. |  .:Fotogaléria:. |  .:Videogaléria:. |  .:Foto týždňa:. |  .:Kniha návštev:. |  .:Linky:. |  .:Moje konto:.
 MENU [x]

 METEO [x]

 FotoGaléria [x]

 Slnko [x]
LZPT Partizánske
48°37'N 18°20'E
Východ: 4:54 AM
Západ: 8:34 PM
LZIB Bratislava
48°10'N 17°12'E
Východ: 5:00 AM
Západ: 8:37 PM
LZKZ Košice
48°39'N 21°14'E
Východ: 4:42 AM
Západ: 8:22 PM

 Jazyky [x]
Vyberte jazyk rozhrania:

Slovak English German Polish


  SPRÁVY METAR - ČESKÁ REPUBLIKA
Brno-TuřanyLKTB 272130Z 32005KT CAVOK 10/04 Q1020 NOSIGdekóduj
ČáslavLKCV 272100Z 28005KT CAVOK 10/06 Q1020 NOSIGdekóduj
HolešovLKHO 010800Z VRB03KT CAVOK 23/17 Q1019dekóduj
Hradec Královedekóduj
Karlovy VaryLKKV 272100Z 26003KT CAVOK 07/03 Q1021dekóduj
KunoviceLKKU 271400Z 32009KT 260V020 9999 FEW046 14/05 Q1017dekóduj
LiberecLKLB 020602Z 16003KT 9999 FEW016 BKN043 M01/M02 Q1016dekóduj
Mariánsky Láznědekóduj
Náměšť nad OslavouLKNA 272100Z 32008KT CAVOK 08/03 Q1020 RMK BLU BLUdekóduj
Ostrava-MošnovLKMT 272130Z 34002KT CAVOK 10/05 Q1019 NOSIGdekóduj
PardubiceLKPD 272100Z 28006KT CAVOK 10/05 Q1020 RMK BLUdekóduj
Praha-KbelyLKKB 272100Z 28003KT CAVOK 10/04 Q1020 NOSIGdekóduj
Praha-RuzyněLKPR 272130Z 27004KT CAVOK 09/04 Q1020 NOSIGdekóduj
PřerovLKPO 010000Z 05005KT CAVOK 04/01 Q1013dekóduj
 FreeFly INFO [x]
COROWA 2009


COROWA 2009


COROWA 2009



 LZPT webcam [x]

 Foto týždňa [x]

 KBO SNA [x]

 Login [x]
Užívateľské meno

Heslo


Ešte nemáš konto? Môžeš si ho vytvoriť. Registrovaný užívateľ má množstvo výhod, napr. posielanie okamžitých správ iným užívateľom, posielanie komentárov s vlastným menom, možnosť pridávať fotografie do galérie...

 Kto je online [x]
Momentálne je online 25 hostí a 0 členov.

Ste anonymný užívateľ. Zaregistrovať sa môžete tu

DETAILY

 Linky [x]

 Počítadlo návštev [x]
Zaznamenali sme
34399888
strán zobrazených od júna 2003

Počet dnešných unikátnych IP adries:
0



www.freefly.sk
Powered by SzMsoft ©2003-2005. Polish translations by Cezary Dąbek. Flying server www.freefly.sk is administrated by maro@freefly.sk - www.artweb.freefly.sk
PHP-Nuke Copyright © 2004 by Francisco Burzi. This is free software, and you may redistribute it under the GPL. PHP-Nuke comes with absolutely no warranty, for details, see the license.